CheckWX is a tool to help pilots better visualize weather data.  It is not intended as a substitute for an official pre-flight weather briefing.

05:22:57 UTC

DTTX METAR
Sfax Thyna International Airport
Sfax, Tunisia
Current

23 mins ago

DTTX 200500Z 35006KT CAVOK 10/09 Q1020
Observed
Feb-20 @ 05:00 UTC
Wind
  • 350° at 6 KTS
Visibility
10,000+ meters
Flight Rules
VFR
Cloud Levels
  • Clear skies
Temperature
10°C / 50°F
Dewpoint
C / 48°F
Humidity
94%
Altimeter
30.12" Hg
Pressure
1019.92 hPa
Previous

2 hours ago

DTTX 200300Z 34006KT CAVOK 09/09 Q1020
Observed
Feb-20 @ 03:00 UTC
Wind
  • 340° at 6 KTS
Visibility
10,000+ meters
Flight Rules
VFR
Cloud Levels
  • Clear skies
Temperature
C / 48°F
Dewpoint
C / 48°F
Humidity
100%
Altimeter
30.12" Hg
Pressure
1019.92 hPa
Previous

3 hours ago

DTTX 200200Z 34005KT CAVOK 09/08 Q1021
Observed
Feb-20 @ 02:00 UTC
Wind
  • 340° at 5 KTS
Visibility
10,000+ meters
Flight Rules
VFR
Cloud Levels
  • Clear skies
Temperature
C / 48°F
Dewpoint
C / 46°F
Humidity
94%
Altimeter
30.15" Hg
Pressure
1020.92 hPa